sensor_id;sensor_type;location;lat;lon;timestamp;temperature;humidity
3690;DHT22;1861;50.240;8.596;2022-09-01T00:00:25;20.90;67.80
3690;DHT22;1861;50.240;8.596;2022-09-01T00:02:57;20.90;68.00
3690;DHT22;1861;50.240;8.596;2022-09-01T00:05:25;20.90;68.00
3690;DHT22;1861;50.240;8.596;2022-09-01T00:07:53;20.90;67.80
3690;DHT22;1861;50.240;8.596;2022-09-01T00:10:21;20.90;67.90
3690;DHT22;1861;50.240;8.596;2022-09-01T00:12:49;20.80;67.80
3690;DHT22;1861;50.240;8.596;2022-09-01T00:15:18;20.80;68.10
3690;DHT22;1861;50.240;8.596;2022-09-01T00:17:46;20.80;68.20
3690;DHT22;1861;50.240;8.596;2022-09-01T00:20:16;20.80;68.20
3690;DHT22;1861;50.240;8.596;2022-09-01T00:22:46;20.80;68.40
3690;DHT22;1861;50.240;8.596;2022-09-01T00:25:15;20.80;68.50
3690;DHT22;1861;50.240;8.596;2022-09-01T00:27:46;20.80;68.60
3690;DHT22;1861;50.240;8.596;2022-09-01T00:30:15;20.70;68.40
3690;DHT22;1861;50.240;8.596;2022-09-01T00:32:43;20.80;68.60
3690;DHT22;1861;50.240;8.596;2022-09-01T00:35:13;20.80;68.50
3690;DHT22;1861;50.240;8.596;2022-09-01T00:37:42;20.70;68.40
3690;DHT22;1861;50.240;8.596;2022-09-01T00:40:12;20.70;69.20
3690;DHT22;1861;50.240;8.596;2022-09-01T00:42:41;20.70;68.50
3690;DHT22;1861;50.240;8.596;2022-09-01T00:45:10;20.80;68.70
3690;DHT22;1861;50.240;8.596;2022-09-01T00:47:38;20.80;68.50
3690;DHT22;1861;50.240;8.596;2022-09-01T00:50:09;20.80;68.50
3690;DHT22;1861;50.240;8.596;2022-09-01T00:52:40;20.80;68.60
3690;DHT22;1861;50.240;8.596;2022-09-01T00:55:15;20.80;68.70
3690;DHT22;1861;50.240;8.596;2022-09-01T00:57:45;20.80;68.80
3690;DHT22;1861;50.240;8.596;2022-09-01T01:00:16;20.70;68.70
3690;DHT22;1861;50.240;8.596;2022-09-01T01:02:46;20.80;68.90
3690;DHT22;1861;50.240;8.596;2022-09-01T01:05:15;20.70;69.00
3690;DHT22;1861;50.240;8.596;2022-09-01T01:07:43;20.80;69.20
3690;DHT22;1861;50.240;8.596;2022-09-01T01:10:18;20.80;69.20
3690;DHT22;1861;50.240;8.596;2022-09-01T01:12:48;20.80;69.40
3690;DHT22;1861;50.240;8.596;2022-09-01T01:15:18;20.90;69.50
3690;DHT22;1861;50.240;8.596;2022-09-01T01:17:46;20.90;69.40
3690;DHT22;1861;50.240;8.596;2022-09-01T01:20:16;20.90;69.30
3690;DHT22;1861;50.240;8.596;2022-09-01T01:23:09;20.80;69.30
3690;DHT22;1861;50.240;8.596;2022-09-01T01:25:45;20.80;69.40
3690;DHT22;1861;50.240;8.596;2022-09-01T01:28:18;20.90;69.50
3690;DHT22;1861;50.240;8.596;2022-09-01T01:30:53;20.80;69.60
3690;DHT22;1861;50.240;8.596;2022-09-01T01:33:29;20.80;69.70
3690;DHT22;1861;50.240;8.596;2022-09-01T01:35:57;20.80;69.70
3690;DHT22;1861;50.240;8.596;2022-09-01T01:38:27;20.80;70.00
3690;DHT22;1861;50.240;8.596;2022-09-01T01:40:58;20.80;70.30
3690;DHT22;1861;50.240;8.596;2022-09-01T01:43:27;20.90;70.30
3690;DHT22;1861;50.240;8.596;2022-09-01T01:45:56;20.90;70.40
3690;DHT22;1861;50.240;8.596;2022-09-01T01:48:35;20.90;70.20
3690;DHT22;1861;50.240;8.596;2022-09-01T01:51:05;20.90;70.20
3690;DHT22;1861;50.240;8.596;2022-09-01T01:53:34;20.90;70.40
3690;DHT22;1861;50.240;8.596;2022-09-01T01:56:04;20.90;70.40
3690;DHT22;1861;50.240;8.596;2022-09-01T01:58:35;20.80;70.40
3690;DHT22;1861;50.240;8.596;2022-09-01T02:01:11;20.90;70.70
3690;DHT22;1861;50.240;8.596;2022-09-01T02:03:39;20.90;70.60
3690;DHT22;1861;50.240;8.596;2022-09-01T02:06:09;20.90;70.50
3690;DHT22;1861;50.240;8.596;2022-09-01T02:08:38;20.90;70.40
3690;DHT22;1861;50.240;8.596;2022-09-01T02:11:08;20.80;70.50
3690;DHT22;1861;50.240;8.596;2022-09-01T02:13:36;20.80;70.60
3690;DHT22;1861;50.240;8.596;2022-09-01T02:16:07;20.80;70.60
3690;DHT22;1861;50.240;8.596;2022-09-01T02:18:41;20.70;70.60
3690;DHT22;1861;50.240;8.596;2022-09-01T02:21:10;20.80;70.90
3690;DHT22;1861;50.240;8.596;2022-09-01T02:23:45;20.80;70.70
3690;DHT22;1861;50.240;8.596;2022-09-01T02:26:16;20.80;70.90
3690;DHT22;1861;50.240;8.596;2022-09-01T02:28:47;20.80;70.60
3690;DHT22;1861;50.240;8.596;2022-09-01T02:31:26;20.80;70.70
3690;DHT22;1861;50.240;8.596;2022-09-01T02:33:58;20.80;70.80
3690;DHT22;1861;50.240;8.596;2022-09-01T02:36:27;20.80;70.70
3690;DHT22;1861;50.240;8.596;2022-09-01T02:38:58;20.70;70.80
3690;DHT22;1861;50.240;8.596;2022-09-01T02:41:28;20.70;71.10
3690;DHT22;1861;50.240;8.596;2022-09-01T02:44:00;20.80;71.20
3690;DHT22;1861;50.240;8.596;2022-09-01T02:46:30;20.80;71.00
3690;DHT22;1861;50.240;8.596;2022-09-01T02:48:58;20.80;71.00
3690;DHT22;1861;50.240;8.596;2022-09-01T02:51:27;20.80;70.90
3690;DHT22;1861;50.240;8.596;2022-09-01T02:53:56;20.70;70.60
3690;DHT22;1861;50.240;8.596;2022-09-01T02:56:25;20.70;70.90
3690;DHT22;1861;50.240;8.596;2022-09-01T02:58:55;20.80;70.80
3690;DHT22;1861;50.240;8.596;2022-09-01T03:01:27;20.70;70.70
3690;DHT22;1861;50.240;8.596;2022-09-01T03:03:59;20.80;71.20
3690;DHT22;1861;50.240;8.596;2022-09-01T03:06:29;20.80;71.00
3690;DHT22;1861;50.240;8.596;2022-09-01T03:09:01;20.80;70.80
3690;DHT22;1861;50.240;8.596;2022-09-01T03:11:33;20.80;70.70
3690;DHT22;1861;50.240;8.596;2022-09-01T03:14:06;20.80;70.60
3690;DHT22;1861;50.240;8.596;2022-09-01T03:16:35;20.70;70.60
3690;DHT22;1861;50.240;8.596;2022-09-01T03:19:05;20.70;70.50
3690;DHT22;1861;50.240;8.596;2022-09-01T03:21:35;20.70;70.70
3690;DHT22;1861;50.240;8.596;2022-09-01T03:24:07;20.70;70.70
3690;DHT22;1861;50.240;8.596;2022-09-01T03:26:36;20.70;70.80
3690;DHT22;1861;50.240;8.596;2022-09-01T03:29:06;20.70;70.80
3690;DHT22;1861;50.240;8.596;2022-09-01T03:31:35;20.60;70.70
3690;DHT22;1861;50.240;8.596;2022-09-01T03:34:05;20.60;70.70
3690;DHT22;1861;50.240;8.596;2022-09-01T03:36:41;20.60;70.70
3690;DHT22;1861;50.240;8.596;2022-09-01T03:39:21;20.60;70.60
3690;DHT22;1861;50.240;8.596;2022-09-01T03:41:49;20.60;70.70
3690;DHT22;1861;50.240;8.596;2022-09-01T03:44:19;20.60;70.60
3690;DHT22;1861;50.240;8.596;2022-09-01T03:46:47;20.60;70.50
3690;DHT22;1861;50.240;8.596;2022-09-01T03:49:16;20.50;70.60
3690;DHT22;1861;50.240;8.596;2022-09-01T03:51:54;20.60;70.80
3690;DHT22;1861;50.240;8.596;2022-09-01T03:54:24;20.60;70.70
3690;DHT22;1861;50.240;8.596;2022-09-01T03:56:56;20.60;70.50
3690;DHT22;1861;50.240;8.596;2022-09-01T03:59:29;20.50;70.60
3690;DHT22;1861;50.240;8.596;2022-09-01T04:01:58;20.50;70.80
3690;DHT22;1861;50.240;8.596;2022-09-01T04:04:28;20.50;70.80
3690;DHT22;1861;50.240;8.596;2022-09-01T04:06:58;20.50;70.80
3690;DHT22;1861;50.240;8.596;2022-09-01T04:09:28;20.50;70.70
3690;DHT22;1861;50.240;8.596;2022-09-01T04:11:56;20.50;70.80
3690;DHT22;1861;50.240;8.596;2022-09-01T04:14:25;20.50;70.70
3690;DHT22;1861;50.240;8.596;2022-09-01T04:16:57;20.50;70.70
3690;DHT22;1861;50.240;8.596;2022-09-01T04:19:43;20.50;70.80
3690;DHT22;1861;50.240;8.596;2022-09-01T04:22:12;20.50;70.90
3690;DHT22;1861;50.240;8.596;2022-09-01T04:24:42;20.50;70.90
3690;DHT22;1861;50.240;8.596;2022-09-01T04:27:14;20.50;70.90
3690;DHT22;1861;50.240;8.596;2022-09-01T04:29:44;20.50;71.20
3690;DHT22;1861;50.240;8.596;2022-09-01T04:32:14;20.50;71.00
3690;DHT22;1861;50.240;8.596;2022-09-01T04:34:46;20.50;71.00
3690;DHT22;1861;50.240;8.596;2022-09-01T04:37:17;20.50;70.90
3690;DHT22;1861;50.240;8.596;2022-09-01T04:39:52;20.40;71.00
3690;DHT22;1861;50.240;8.596;2022-09-01T04:42:24;20.40;71.00
3690;DHT22;1861;50.240;8.596;2022-09-01T04:44:54;20.50;71.20
3690;DHT22;1861;50.240;8.596;2022-09-01T04:47:25;20.50;71.30
3690;DHT22;1861;50.240;8.596;2022-09-01T04:50:06;20.40;71.10
3690;DHT22;1861;50.240;8.596;2022-09-01T04:52:42;20.40;71.10
3690;DHT22;1861;50.240;8.596;2022-09-01T04:55:21;20.40;71.00
3690;DHT22;1861;50.240;8.596;2022-09-01T04:57:50;20.40;71.10
3690;DHT22;1861;50.240;8.596;2022-09-01T05:00:21;20.40;71.10
3690;DHT22;1861;50.240;8.596;2022-09-01T05:02:52;20.40;71.20
3690;DHT22;1861;50.240;8.596;2022-09-01T05:05:24;20.40;71.20
3690;DHT22;1861;50.240;8.596;2022-09-01T05:07:53;20.40;71.20
3690;DHT22;1861;50.240;8.596;2022-09-01T05:10:23;20.40;71.10
3690;DHT22;1861;50.240;8.596;2022-09-01T05:13:28;20.30;70.90
3690;DHT22;1861;50.240;8.596;2022-09-01T05:16:01;20.40;71.00
3690;DHT22;1861;50.240;8.596;2022-09-01T05:18:31;20.30;70.90
3690;DHT22;1861;50.240;8.596;2022-09-01T05:21:04;20.30;70.90
3690;DHT22;1861;50.240;8.596;2022-09-01T05:23:37;20.20;71.10
3690;DHT22;1861;50.240;8.596;2022-09-01T05:26:12;20.30;71.50
3690;DHT22;1861;50.240;8.596;2022-09-01T05:28:44;20.40;71.40
3690;DHT22;1861;50.240;8.596;2022-09-01T05:31:14;20.30;71.00
3690;DHT22;1861;50.240;8.596;2022-09-01T05:33:48;20.30;71.10
3690;DHT22;1861;50.240;8.596;2022-09-01T05:36:21;20.20;71.00
3690;DHT22;1861;50.240;8.596;2022-09-01T05:38:51;20.30;70.90
3690;DHT22;1861;50.240;8.596;2022-09-01T05:41:20;20.20;70.70
3690;DHT22;1861;50.240;8.596;2022-09-01T05:43:50;20.30;70.70
3690;DHT22;1861;50.240;8.596;2022-09-01T05:46:26;20.30;70.50
3690;DHT22;1861;50.240;8.596;2022-09-01T05:48:58;20.40;70.70
3690;DHT22;1861;50.240;8.596;2022-09-01T05:51:27;20.40;70.70
3690;DHT22;1861;50.240;8.596;2022-09-01T05:54:20;20.40;70.60
3690;DHT22;1861;50.240;8.596;2022-09-01T05:56:49;20.40;70.60
3690;DHT22;1861;50.240;8.596;2022-09-01T05:59:22;20.50;70.80
3690;DHT22;1861;50.240;8.596;2022-09-01T06:02:08;20.50;70.60
3690;DHT22;1861;50.240;8.596;2022-09-01T06:04:39;20.50;70.40
3690;DHT22;1861;50.240;8.596;2022-09-01T06:07:11;20.50;70.50
3690;DHT22;1861;50.240;8.596;2022-09-01T06:09:48;20.50;70.40
3690;DHT22;1861;50.240;8.596;2022-09-01T06:12:21;20.50;70.60
3690;DHT22;1861;50.240;8.596;2022-09-01T06:14:52;20.50;70.50
3690;DHT22;1861;50.240;8.596;2022-09-01T06:17:23;20.50;70.00
3690;DHT22;1861;50.240;8.596;2022-09-01T06:19:57;20.50;70.10
3690;DHT22;1861;50.240;8.596;2022-09-01T06:22:26;20.50;69.90
3690;DHT22;1861;50.240;8.596;2022-09-01T06:24:57;20.50;69.60
3690;DHT22;1861;50.240;8.596;2022-09-01T06:27:35;20.50;69.50
3690;DHT22;1861;50.240;8.596;2022-09-01T06:30:07;20.50;69.50
3690;DHT22;1861;50.240;8.596;2022-09-01T06:32:46;20.60;69.50
3690;DHT22;1861;50.240;8.596;2022-09-01T06:35:17;20.50;69.50
3690;DHT22;1861;50.240;8.596;2022-09-01T06:37:47;20.60;69.50
3690;DHT22;1861;50.240;8.596;2022-09-01T06:40:33;20.60;69.70
3690;DHT22;1861;50.240;8.596;2022-09-01T06:43:04;20.70;69.70
3690;DHT22;1861;50.240;8.596;2022-09-01T06:45:40;20.70;69.60
3690;DHT22;1861;50.240;8.596;2022-09-01T06:48:09;20.70;69.60
3690;DHT22;1861;50.240;8.596;2022-09-01T06:50:43;20.70;69.50
3690;DHT22;1861;50.240;8.596;2022-09-01T06:53:32;20.70;69.50
3690;DHT22;1861;50.240;8.596;2022-09-01T06:56:05;20.70;69.50
3690;DHT22;1861;50.240;8.596;2022-09-01T06:58:34;20.70;69.40
3690;DHT22;1861;50.240;8.596;2022-09-01T07:01:08;20.70;69.70
3690;DHT22;1861;50.240;8.596;2022-09-01T07:03:42;20.80;69.70
3690;DHT22;1861;50.240;8.596;2022-09-01T07:06:19;20.90;70.10
3690;DHT22;1861;50.240;8.596;2022-09-01T07:09:16;20.90;69.80
3690;DHT22;1861;50.240;8.596;2022-09-01T07:12:07;20.80;69.70
3690;DHT22;1861;50.240;8.596;2022-09-01T07:14:56;20.80;69.60
3690;DHT22;1861;50.240;8.596;2022-09-01T07:17:46;20.90;69.80
3690;DHT22;1861;50.240;8.596;2022-09-01T07:20:18;20.90;69.20
3690;DHT22;1861;50.240;8.596;2022-09-01T07:22:53;20.90;69.70
3690;DHT22;1861;50.240;8.596;2022-09-01T07:25:30;21.00;70.20
3690;DHT22;1861;50.240;8.596;2022-09-01T07:28:39;20.90;69.30
3690;DHT22;1861;50.240;8.596;2022-09-01T07:31:16;20.90;69.50
3690;DHT22;1861;50.240;8.596;2022-09-01T07:34:08;21.10;69.90
3690;DHT22;1861;50.240;8.596;2022-09-01T07:37:00;21.00;69.30
3690;DHT22;1861;50.240;8.596;2022-09-01T07:39:51;21.00;69.30
3690;DHT22;1861;50.240;8.596;2022-09-01T07:42:53;21.10;69.40
3690;DHT22;1861;50.240;8.596;2022-09-01T07:45:57;21.10;69.60
3690;DHT22;1861;50.240;8.596;2022-09-01T07:48:46;21.20;69.70
3690;DHT22;1861;50.240;8.596;2022-09-01T07:51:34;21.20;69.70
3690;DHT22;1861;50.240;8.596;2022-09-01T07:54:05;21.20;69.80
3690;DHT22;1861;50.240;8.596;2022-09-01T07:56:35;21.30;69.70
3690;DHT22;1861;50.240;8.596;2022-09-01T07:59:07;21.30;69.70
3690;DHT22;1861;50.240;8.596;2022-09-01T08:01:49;21.20;69.80
3690;DHT22;1861;50.240;8.596;2022-09-01T08:04:19;21.20;69.50
3690;DHT22;1861;50.240;8.596;2022-09-01T08:06:49;21.30;69.60
3690;DHT22;1861;50.240;8.596;2022-09-01T08:09:18;21.30;69.60
3690;DHT22;1861;50.240;8.596;2022-09-01T08:12:07;21.40;69.70
3690;DHT22;1861;50.240;8.596;2022-09-01T08:14:44;21.30;69.30
3690;DHT22;1861;50.240;8.596;2022-09-01T08:17:12;21.30;69.00
3690;DHT22;1861;50.240;8.596;2022-09-01T08:19:44;21.40;69.60
3690;DHT22;1861;50.240;8.596;2022-09-01T08:22:20;21.40;69.40
3690;DHT22;1861;50.240;8.596;2022-09-01T08:25:03;21.30;68.90
3690;DHT22;1861;50.240;8.596;2022-09-01T08:27:33;21.40;69.50
3690;DHT22;1861;50.240;8.596;2022-09-01T08:30:06;21.50;69.30
3690;DHT22;1861;50.240;8.596;2022-09-01T08:32:36;21.50;68.90
3690;DHT22;1861;50.240;8.596;2022-09-01T08:35:09;21.50;68.90
3690;DHT22;1861;50.240;8.596;2022-09-01T08:37:37;21.50;68.80
3690;DHT22;1861;50.240;8.596;2022-09-01T08:40:09;21.60;69.00
3690;DHT22;1861;50.240;8.596;2022-09-01T08:42:47;21.60;68.80
3690;DHT22;1861;50.240;8.596;2022-09-01T08:45:21;21.60;69.60
3690;DHT22;1861;50.240;8.596;2022-09-01T08:47:51;21.60;68.50
3690;DHT22;1861;50.240;8.596;2022-09-01T08:50:41;21.60;68.20
3690;DHT22;1861;50.240;8.596;2022-09-01T08:53:33;21.70;68.50
3690;DHT22;1861;50.240;8.596;2022-09-01T08:56:04;21.80;68.70
3690;DHT22;1861;50.240;8.596;2022-09-01T08:58:34;21.80;68.60
3690;DHT22;1861;50.240;8.596;2022-09-01T09:01:07;21.90;68.50
3690;DHT22;1861;50.240;8.596;2022-09-01T09:03:42;21.90;68.60
3690;DHT22;1861;50.240;8.596;2022-09-01T09:06:19;21.90;68.50
3690;DHT22;1861;50.240;8.596;2022-09-01T09:08:52;21.90;68.60
3690;DHT22;1861;50.240;8.596;2022-09-01T09:11:38;21.90;68.50
3690;DHT22;1861;50.240;8.596;2022-09-01T09:14:17;21.90;68.70
3690;DHT22;1861;50.240;8.596;2022-09-01T09:16:53;22.00;68.90
3690;DHT22;1861;50.240;8.596;2022-09-01T09:19:23;22.00;68.80
3690;DHT22;1861;50.240;8.596;2022-09-01T09:21:54;22.00;68.80
3690;DHT22;1861;50.240;8.596;2022-09-01T09:24:26;22.00;69.40
3690;DHT22;1861;50.240;8.596;2022-09-01T09:27:05;22.10;68.50
3690;DHT22;1861;50.240;8.596;2022-09-01T09:29:38;22.10;68.30
3690;DHT22;1861;50.240;8.596;2022-09-01T09:32:07;22.20;68.40
3690;DHT22;1861;50.240;8.596;2022-09-01T09:34:56;22.20;68.40
3690;DHT22;1861;50.240;8.596;2022-09-01T09:37:43;22.20;68.60
3690;DHT22;1861;50.240;8.596;2022-09-01T09:40:15;22.20;68.40
3690;DHT22;1861;50.240;8.596;2022-09-01T09:43:00;22.30;68.90
3690;DHT22;1861;50.240;8.596;2022-09-01T09:45:32;22.30;68.40
3690;DHT22;1861;50.240;8.596;2022-09-01T09:48:05;22.30;68.80
3690;DHT22;1861;50.240;8.596;2022-09-01T09:50:38;22.30;68.80
3690;DHT22;1861;50.240;8.596;2022-09-01T09:53:14;22.40;68.60
3690;DHT22;1861;50.240;8.596;2022-09-01T09:55:53;22.40;68.40
3690;DHT22;1861;50.240;8.596;2022-09-01T09:58:25;22.40;68.40
3690;DHT22;1861;50.240;8.596;2022-09-01T10:01:01;22.40;68.60
3690;DHT22;1861;50.240;8.596;2022-09-01T10:03:36;22.40;68.80
3690;DHT22;1861;50.240;8.596;2022-09-01T10:06:10;22.50;68.90
3690;DHT22;1861;50.240;8.596;2022-09-01T10:08:41;22.50;69.10
3690;DHT22;1861;50.240;8.596;2022-09-01T10:11:28;22.50;69.30
3690;DHT22;1861;50.240;8.596;2022-09-01T10:14:05;22.60;69.40
3690;DHT22;1861;50.240;8.596;2022-09-01T10:16:37;22.60;69.30
3690;DHT22;1861;50.240;8.596;2022-09-01T10:19:06;22.60;69.10
3690;DHT22;1861;50.240;8.596;2022-09-01T10:21:40;22.60;68.60
3690;DHT22;1861;50.240;8.596;2022-09-01T10:24:16;22.60;68.40
3690;DHT22;1861;50.240;8.596;2022-09-01T10:26:50;22.70;68.20
3690;DHT22;1861;50.240;8.596;2022-09-01T10:29:22;22.70;68.20
3690;DHT22;1861;50.240;8.596;2022-09-01T10:32:07;22.80;68.70
3690;DHT22;1861;50.240;8.596;2022-09-01T10:34:56;22.80;69.20
3690;DHT22;1861;50.240;8.596;2022-09-01T10:37:26;22.80;68.40
3690;DHT22;1861;50.240;8.596;2022-09-01T10:40:17;22.80;68.10
3690;DHT22;1861;50.240;8.596;2022-09-01T10:42:51;22.90;68.50
3690;DHT22;1861;50.240;8.596;2022-09-01T10:45:32;22.90;68.90
3690;DHT22;1861;50.240;8.596;2022-09-01T10:48:29;23.00;68.40
3690;DHT22;1861;50.240;8.596;2022-09-01T10:51:41;23.00;68.50
3690;DHT22;1861;50.240;8.596;2022-09-01T10:54:52;23.10;68.20
3690;DHT22;1861;50.240;8.596;2022-09-01T10:57:32;23.10;67.90
3690;DHT22;1861;50.240;8.596;2022-09-01T11:00:43;23.10;68.30
3690;DHT22;1861;50.240;8.596;2022-09-01T11:03:59;23.20;67.40
3690;DHT22;1861;50.240;8.596;2022-09-01T11:09:41;23.30;66.50
3690;DHT22;1861;50.240;8.596;2022-09-01T11:12:45;23.30;66.50
3690;DHT22;1861;50.240;8.596;2022-09-01T11:15:35;23.40;66.70
3690;DHT22;1861;50.240;8.596;2022-09-01T11:18:09;23.40;67.10
3690;DHT22;1861;50.240;8.596;2022-09-01T11:20:44;23.20;67.50
3690;DHT22;1861;50.240;8.596;2022-09-01T11:23:21;23.10;67.70
3690;DHT22;1861;50.240;8.596;2022-09-01T11:25:55;23.10;67.70
3690;DHT22;1861;50.240;8.596;2022-09-01T11:28:44;23.30;67.90
3690;DHT22;1861;50.240;8.596;2022-09-01T11:31:37;23.40;67.70
3690;DHT22;1861;50.240;8.596;2022-09-01T11:34:15;23.40;67.60
3690;DHT22;1861;50.240;8.596;2022-09-01T11:36:51;23.50;67.20
3690;DHT22;1861;50.240;8.596;2022-09-01T11:39:31;23.50;67.30
3690;DHT22;1861;50.240;8.596;2022-09-01T11:42:04;23.60;67.00
3690;DHT22;1861;50.240;8.596;2022-09-01T11:44:37;23.50;66.90
3690;DHT22;1861;50.240;8.596;2022-09-01T11:47:12;23.50;67.20
3690;DHT22;1861;50.240;8.596;2022-09-01T11:49:49;23.60;66.40
3690;DHT22;1861;50.240;8.596;2022-09-01T11:52:21;23.60;65.80
3690;DHT22;1861;50.240;8.596;2022-09-01T11:54:50;23.60;65.60
3690;DHT22;1861;50.240;8.596;2022-09-01T11:57:25;23.60;65.50
3690;DHT22;1861;50.240;8.596;2022-09-01T11:59:54;23.60;65.30
3690;DHT22;1861;50.240;8.596;2022-09-01T12:02:26;23.60;65.50
3690;DHT22;1861;50.240;8.596;2022-09-01T12:04:56;23.50;65.30
3690;DHT22;1861;50.240;8.596;2022-09-01T12:07:40;23.60;65.20
3690;DHT22;1861;50.240;8.596;2022-09-01T12:10:16;23.60;64.70
3690;DHT22;1861;50.240;8.596;2022-09-01T12:12:46;23.60;64.20
3690;DHT22;1861;50.240;8.596;2022-09-01T12:15:21;23.60;64.40
3690;DHT22;1861;50.240;8.596;2022-09-01T12:17:50;23.60;64.30
3690;DHT22;1861;50.240;8.596;2022-09-01T12:20:26;23.60;64.50
3690;DHT22;1861;50.240;8.596;2022-09-01T12:22:59;23.60;64.40
3690;DHT22;1861;50.240;8.596;2022-09-01T12:25:30;23.60;64.80
3690;DHT22;1861;50.240;8.596;2022-09-01T12:27:59;23.60;64.40
3690;DHT22;1861;50.240;8.596;2022-09-01T12:30:28;23.60;64.00
3690;DHT22;1861;50.240;8.596;2022-09-01T12:33:02;23.60;63.60
3690;DHT22;1861;50.240;8.596;2022-09-01T12:35:52;23.60;63.60
3690;DHT22;1861;50.240;8.596;2022-09-01T12:38:39;23.60;63.40
3690;DHT22;1861;50.240;8.596;2022-09-01T12:41:27;23.50;63.40
3690;DHT22;1861;50.240;8.596;2022-09-01T12:44:26;23.60;63.40
3690;DHT22;1861;50.240;8.596;2022-09-01T12:46:57;23.60;63.60
3690;DHT22;1861;50.240;8.596;2022-09-01T12:49:34;23.60;63.20
3690;DHT22;1861;50.240;8.596;2022-09-01T12:52:20;23.60;63.60
3690;DHT22;1861;50.240;8.596;2022-09-01T12:55:05;23.60;63.20
3690;DHT22;1861;50.240;8.596;2022-09-01T12:57:36;23.60;63.20
3690;DHT22;1861;50.240;8.596;2022-09-01T13:00:12;23.60;63.60
3690;DHT22;1861;50.240;8.596;2022-09-01T13:02:43;23.60;63.00
3690;DHT22;1861;50.240;8.596;2022-09-01T13:05:24;23.60;62.30
3690;DHT22;1861;50.240;8.596;2022-09-01T13:08:01;23.60;62.40
3690;DHT22;1861;50.240;8.596;2022-09-01T13:10:34;23.60;62.60
3690;DHT22;1861;50.240;8.596;2022-09-01T13:13:04;23.60;62.50
3690;DHT22;1861;50.240;8.596;2022-09-01T13:15:34;23.60;61.90
3690;DHT22;1861;50.240;8.596;2022-09-01T13:18:02;23.60;61.40
3690;DHT22;1861;50.240;8.596;2022-09-01T13:20:31;23.60;61.30
3690;DHT22;1861;50.240;8.596;2022-09-01T13:22:59;23.60;60.90
3690;DHT22;1861;50.240;8.596;2022-09-01T13:25:28;23.60;61.40
3690;DHT22;1861;50.240;8.596;2022-09-01T13:27:58;23.60;61.30
3690;DHT22;1861;50.240;8.596;2022-09-01T13:30:27;23.60;60.80
3690;DHT22;1861;50.240;8.596;2022-09-01T13:32:56;23.60;61.10
3690;DHT22;1861;50.240;8.596;2022-09-01T13:35:44;23.60;61.50
3690;DHT22;1861;50.240;8.596;2022-09-01T13:38:13;23.60;61.50
3690;DHT22;1861;50.240;8.596;2022-09-01T13:40:44;23.60;61.10
3690;DHT22;1861;50.240;8.596;2022-09-01T13:43:15;23.50;60.70
3690;DHT22;1861;50.240;8.596;2022-09-01T13:45:43;23.50;60.50
3690;DHT22;1861;50.240;8.596;2022-09-01T13:48:11;23.50;60.50
3690;DHT22;1861;50.240;8.596;2022-09-01T13:50:43;23.50;60.70
3690;DHT22;1861;50.240;8.596;2022-09-01T13:53:31;23.40;61.00
3690;DHT22;1861;50.240;8.596;2022-09-01T13:55:59;23.40;61.00
3690;DHT22;1861;50.240;8.596;2022-09-01T13:58:29;23.40;61.10
3690;DHT22;1861;50.240;8.596;2022-09-01T14:00:57;23.40;61.30
3690;DHT22;1861;50.240;8.596;2022-09-01T14:03:26;23.40;61.10
3690;DHT22;1861;50.240;8.596;2022-09-01T14:05:58;23.40;61.20
3690;DHT22;1861;50.240;8.596;2022-09-01T14:08:26;23.40;61.10
3690;DHT22;1861;50.240;8.596;2022-09-01T14:10:54;23.40;60.90
3690;DHT22;1861;50.240;8.596;2022-09-01T14:13:23;23.40;60.80
3690;DHT22;1861;50.240;8.596;2022-09-01T14:15:53;23.40;60.50
3690;DHT22;1861;50.240;8.596;2022-09-01T14:18:22;23.30;60.20
3690;DHT22;1861;50.240;8.596;2022-09-01T14:20:50;23.30;60.00
3690;DHT22;1861;50.240;8.596;2022-09-01T14:23:20;23.30;59.90
3690;DHT22;1861;50.240;8.596;2022-09-01T14:25:49;23.40;61.40
3690;DHT22;1861;50.240;8.596;2022-09-01T14:28:20;23.40;61.50
3690;DHT22;1861;50.240;8.596;2022-09-01T14:30:50;23.40;61.40
3690;DHT22;1861;50.240;8.596;2022-09-01T14:33:18;23.40;60.90
3690;DHT22;1861;50.240;8.596;2022-09-01T14:35:50;23.40;60.60
3690;DHT22;1861;50.240;8.596;2022-09-01T14:38:18;23.40;60.60
3690;DHT22;1861;50.240;8.596;2022-09-01T14:40:47;23.40;60.10
3690;DHT22;1861;50.240;8.596;2022-09-01T14:43:17;23.40;59.90
3690;DHT22;1861;50.240;8.596;2022-09-01T14:45:45;23.40;59.90
3690;DHT22;1861;50.240;8.596;2022-09-01T14:48:14;23.40;60.00
3690;DHT22;1861;50.240;8.596;2022-09-01T14:50:47;23.40;59.90
3690;DHT22;1861;50.240;8.596;2022-09-01T14:53:16;23.40;59.60
3690;DHT22;1861;50.240;8.596;2022-09-01T14:55:45;23.40;59.50
3690;DHT22;1861;50.240;8.596;2022-09-01T14:58:16;23.40;59.40
3690;DHT22;1861;50.240;8.596;2022-09-01T15:00:44;23.40;59.40
3690;DHT22;1861;50.240;8.596;2022-09-01T15:03:13;23.40;59.80
3690;DHT22;1861;50.240;8.596;2022-09-01T15:05:49;23.50;60.00
3690;DHT22;1861;50.240;8.596;2022-09-01T15:08:17;23.50;59.90
3690;DHT22;1861;50.240;8.596;2022-09-01T15:10:46;23.40;60.10
3690;DHT22;1861;50.240;8.596;2022-09-01T15:13:15;23.40;61.00
3690;DHT22;1861;50.240;8.596;2022-09-01T15:15:43;23.40;60.20
3690;DHT22;1861;50.240;8.596;2022-09-01T15:18:11;23.40;59.90
3690;DHT22;1861;50.240;8.596;2022-09-01T15:20:41;23.40;59.40
3690;DHT22;1861;50.240;8.596;2022-09-01T15:23:15;23.40;59.70
3690;DHT22;1861;50.240;8.596;2022-09-01T15:25:44;23.40;59.10
3690;DHT22;1861;50.240;8.596;2022-09-01T15:28:13;23.40;59.50
3690;DHT22;1861;50.240;8.596;2022-09-01T15:30:42;23.30;59.10
3690;DHT22;1861;50.240;8.596;2022-09-01T15:33:12;23.30;58.90
3690;DHT22;1861;50.240;8.596;2022-09-01T15:35:42;23.30;58.60
3690;DHT22;1861;50.240;8.596;2022-09-01T15:38:12;23.30;59.10
3690;DHT22;1861;50.240;8.596;2022-09-01T15:40:44;23.40;59.80
3690;DHT22;1861;50.240;8.596;2022-09-01T15:43:24;23.40;59.00
3690;DHT22;1861;50.240;8.596;2022-09-01T15:45:52;23.30;58.80
3690;DHT22;1861;50.240;8.596;2022-09-01T15:48:20;23.40;58.70
3690;DHT22;1861;50.240;8.596;2022-09-01T15:50:48;23.40;58.50
3690;DHT22;1861;50.240;8.596;2022-09-01T15:53:18;23.40;58.50
3690;DHT22;1861;50.240;8.596;2022-09-01T15:55:47;23.40;58.10
3690;DHT22;1861;50.240;8.596;2022-09-01T15:58:16;23.40;58.00
3690;DHT22;1861;50.240;8.596;2022-09-01T16:00:45;23.40;57.80
3690;DHT22;1861;50.240;8.596;2022-09-01T16:03:13;23.40;57.90
3690;DHT22;1861;50.240;8.596;2022-09-01T16:05:41;23.40;57.60
3690;DHT22;1861;50.240;8.596;2022-09-01T16:08:09;23.40;57.60
3690;DHT22;1861;50.240;8.596;2022-09-01T16:10:40;23.40;57.60
3690;DHT22;1861;50.240;8.596;2022-09-01T16:13:09;23.40;57.60
3690;DHT22;1861;50.240;8.596;2022-09-01T16:15:43;23.40;58.00
3690;DHT22;1861;50.240;8.596;2022-09-01T16:18:22;23.40;57.90
3690;DHT22;1861;50.240;8.596;2022-09-01T16:21:00;23.40;57.70
3690;DHT22;1861;50.240;8.596;2022-09-01T16:23:36;23.40;57.80
3690;DHT22;1861;50.240;8.596;2022-09-01T16:26:08;23.40;57.70
3690;DHT22;1861;50.240;8.596;2022-09-01T16:28:38;23.40;57.40
3690;DHT22;1861;50.240;8.596;2022-09-01T16:31:11;23.40;57.80
3690;DHT22;1861;50.240;8.596;2022-09-01T16:33:43;23.40;57.90
3690;DHT22;1861;50.240;8.596;2022-09-01T16:36:23;23.40;58.20
3690;DHT22;1861;50.240;8.596;2022-09-01T16:39:00;23.40;57.70
3690;DHT22;1861;50.240;8.596;2022-09-01T16:41:40;23.30;57.40
3690;DHT22;1861;50.240;8.596;2022-09-01T16:44:22;23.30;57.50
3690;DHT22;1861;50.240;8.596;2022-09-01T16:47:00;23.30;57.60
3690;DHT22;1861;50.240;8.596;2022-09-01T16:49:35;23.30;57.30